createdAt,value
2018-02-24T00:00:27.389Z,51.40
2018-02-24T00:00:59.408Z,51.40
2018-02-24T00:01:31.456Z,51.40
2018-02-24T00:02:03.511Z,51.40
2018-02-24T00:02:35.562Z,51.40
2018-02-24T00:03:07.608Z,51.40
2018-02-24T00:03:39.632Z,51.50
2018-02-24T00:04:12.448Z,51.50
2018-02-24T00:04:44.491Z,51.40
2018-02-24T00:05:16.533Z,51.40
2018-02-24T00:05:48.569Z,51.40
2018-02-24T00:06:20.603Z,51.50
2018-02-24T00:06:52.619Z,51.50
2018-02-24T00:07:24.653Z,51.50
2018-02-24T00:07:56.680Z,51.50
2018-02-24T00:08:28.725Z,51.50
2018-02-24T00:09:01.528Z,51.50
2018-02-24T00:09:33.578Z,51.50
2018-02-24T00:10:05.609Z,51.50
2018-02-24T00:10:37.642Z,51.50
2018-02-24T00:11:10.441Z,51.50
2018-02-24T00:11:42.467Z,51.50
2018-02-24T00:12:14.516Z,51.50
2018-02-24T00:12:46.560Z,51.50
2018-02-24T00:13:19.346Z,51.60
2018-02-24T00:13:51.384Z,51.50
2018-02-24T00:14:24.173Z,51.60
2018-02-24T00:14:56.241Z,51.50
2018-02-24T00:15:28.272Z,51.50
2018-02-24T00:16:00.304Z,51.40
2018-02-24T00:16:33.101Z,51.40
2018-02-24T00:17:05.138Z,51.50
2018-02-24T00:17:37.202Z,51.50
2018-02-24T00:18:09.210Z,51.40
2018-02-24T00:18:41.268Z,51.60
2018-02-24T00:19:13.301Z,52.40
2018-02-24T00:19:45.362Z,51.60
2018-02-24T00:20:17.348Z,51.60
2018-02-24T00:20:49.383Z,51.50
2018-02-24T00:21:22.172Z,51.50
2018-02-24T00:21:54.208Z,51.40
2018-02-24T00:22:26.995Z,51.50
2018-02-24T00:22:59.038Z,51.50
2018-02-24T00:23:31.825Z,51.50
2018-02-24T00:24:03.857Z,51.50
2018-02-24T00:24:35.905Z,51.50
2018-02-24T00:25:07.944Z,51.50
2018-02-24T00:25:40.729Z,51.50
2018-02-24T00:26:14.178Z,51.40
2018-02-24T00:26:46.179Z,51.60
2018-02-24T00:27:18.221Z,51.50
2018-02-24T00:27:50.246Z,51.50
2018-02-24T00:28:23.049Z,51.50
2018-02-24T00:28:55.092Z,51.50
2018-02-24T00:29:27.134Z,51.50
2018-02-24T00:29:59.910Z,51.50
2018-02-24T00:30:31.938Z,51.40
2018-02-24T00:31:04.725Z,51.50
2018-02-24T00:31:36.762Z,51.40
2018-02-24T00:32:09.543Z,51.40
2018-02-24T00:32:41.578Z,51.40
2018-02-24T00:33:14.370Z,51.40
2018-02-24T00:33:46.413Z,51.40
2018-02-24T00:34:18.444Z,51.40
2018-02-24T00:34:51.240Z,51.50
2018-02-24T00:35:23.276Z,51.40
2018-02-24T00:35:56.067Z,51.40
2018-02-24T00:36:28.119Z,51.30
2018-02-24T00:37:00.186Z,51.40
2018-02-24T00:37:32.933Z,51.40
2018-02-24T00:38:04.980Z,51.30
2018-02-24T00:38:37.005Z,51.30
2018-02-24T00:39:09.050Z,51.40
2018-02-24T00:39:41.068Z,51.30
2018-02-24T00:40:13.173Z,51.30
2018-02-24T00:40:45.200Z,51.30
2018-02-24T00:41:17.236Z,51.30
2018-02-24T00:41:49.275Z,51.30
2018-02-24T00:42:21.354Z,51.30
2018-02-24T00:42:53.373Z,51.30
2018-02-24T00:43:25.396Z,51.30
2018-02-24T00:43:57.440Z,51.30
2018-02-24T00:44:29.486Z,51.30
2018-02-24T00:45:02.275Z,51.40
2018-02-24T00:45:34.321Z,51.40
2018-02-24T00:46:07.086Z,51.40
2018-02-24T00:46:39.121Z,51.30
2018-02-24T00:47:11.902Z,51.30
2018-02-24T00:47:43.946Z,51.30
2018-02-24T00:48:16.757Z,51.30
2018-02-24T00:48:48.816Z,51.30
2018-02-24T00:49:20.822Z,51.20
2018-02-24T00:49:53.602Z,51.30
2018-02-24T00:50:25.641Z,51.30
2018-02-24T00:50:58.460Z,51.40
2018-02-24T00:51:30.478Z,51.30
2018-02-24T00:52:02.521Z,51.30
2018-02-24T00:52:34.551Z,51.30
2018-02-24T00:53:07.343Z,51.40
2018-02-24T00:53:39.426Z,51.30
2018-02-24T00:54:11.506Z,51.40
2018-02-24T00:54:43.523Z,51.40
2018-02-24T00:55:15.550Z,51.40
2018-02-24T00:55:47.579Z,51.40
2018-02-24T00:56:20.381Z,51.50
2018-02-24T00:56:52.408Z,51.40
2018-02-24T00:57:24.457Z,51.40
2018-02-24T00:57:57.252Z,51.30
2018-02-24T00:58:29.270Z,51.30
2018-02-24T00:59:02.078Z,51.40
2018-02-24T00:59:34.090Z,51.30
2018-02-24T01:00:06.914Z,51.40
2018-02-24T01:00:38.928Z,51.40
2018-02-24T01:01:11.722Z,51.40
2018-02-24T01:01:43.752Z,51.40
2018-02-24T01:02:15.785Z,51.30
2018-02-24T01:02:48.587Z,51.30
2018-02-24T01:03:20.650Z,51.30
2018-02-24T01:03:52.670Z,51.40
2018-02-24T01:04:24.715Z,51.30
2018-02-24T01:04:57.526Z,51.40
2018-02-24T01:05:29.558Z,51.30
2018-02-24T01:06:01.581Z,51.30
2018-02-24T01:06:34.381Z,51.30
2018-02-24T01:07:06.411Z,51.30
2018-02-24T01:07:38.455Z,51.40
2018-02-24T01:08:11.243Z,52.10
2018-02-24T01:08:43.264Z,51.30
2018-02-24T01:09:16.074Z,51.40
2018-02-24T01:09:48.098Z,51.30
2018-02-24T01:10:20.894Z,51.20
2018-02-24T01:10:52.906Z,51.30
2018-02-24T01:11:25.695Z,51.30
2018-02-24T01:11:58.493Z,51.30
2018-02-24T01:12:30.516Z,51.20
2018-02-24T01:13:02.580Z,51.30
2018-02-24T01:13:35.350Z,51.40
2018-02-24T01:14:07.389Z,51.30
2018-02-24T01:14:39.429Z,51.40
2018-02-24T01:15:12.219Z,51.40
2018-02-24T01:15:44.249Z,51.30
2018-02-24T01:16:17.049Z,51.40
2018-02-24T01:16:49.081Z,51.30
2018-02-24T01:17:21.161Z,51.30
2018-02-24T01:17:53.185Z,51.30
2018-02-24T01:18:25.216Z,51.30
2018-02-24T01:18:58.004Z,51.40
2018-02-24T01:19:30.041Z,51.20
2018-02-24T01:20:02.864Z,51.50
2018-02-24T01:20:34.905Z,51.20
2018-02-24T01:21:06.984Z,51.20
2018-02-24T01:21:39.004Z,51.20
2018-02-24T01:22:11.040Z,51.30
2018-02-24T01:22:43.056Z,51.30
2018-02-24T01:23:15.870Z,51.30
2018-02-24T01:23:47.885Z,51.20
2018-02-24T01:24:20.682Z,51.30
2018-02-24T01:24:52.720Z,51.30
2018-02-24T01:25:25.504Z,51.30
2018-02-24T01:25:57.529Z,51.20
2018-02-24T01:26:30.324Z,51.30
2018-02-24T01:27:02.355Z,51.30
2018-02-24T01:27:34.387Z,51.40
2018-02-24T01:28:06.530Z,52.00
2018-02-24T01:28:38.530Z,51.20
2018-02-24T01:29:10.634Z,51.30
2018-02-24T01:29:42.662Z,51.20
2018-02-24T01:30:14.695Z,51.30
2018-02-24T01:30:46.997Z,51.30
2018-02-24T01:31:19.009Z,51.30
2018-02-24T01:31:51.030Z,51.30
2018-02-24T01:32:23.061Z,51.30
2018-02-24T01:32:55.863Z,51.20
2018-02-24T01:33:27.888Z,51.20
2018-02-24T01:33:59.927Z,51.30
2018-02-24T01:34:31.963Z,51.30
2018-02-24T01:35:03.985Z,51.20
2018-02-24T01:35:36.011Z,51.20
2018-02-24T01:36:08.043Z,51.30
2018-02-24T01:36:40.834Z,51.30
2018-02-24T01:37:12.854Z,51.30
2018-02-24T01:37:45.640Z,51.30
2018-02-24T01:38:17.661Z,51.30
2018-02-24T01:38:49.680Z,51.30
2018-02-24T01:39:21.709Z,51.60
2018-02-24T01:39:53.728Z,51.20
2018-02-24T01:40:26.569Z,51.30
2018-02-24T01:40:58.562Z,51.20
2018-02-24T01:41:31.378Z,51.30
2018-02-24T01:42:03.373Z,51.30
2018-02-24T01:42:36.158Z,51.20
2018-02-24T01:43:08.189Z,51.30
2018-02-24T01:43:40.239Z,51.40
2018-02-24T01:44:13.037Z,51.30
2018-02-24T01:44:45.144Z,51.30
2018-02-24T01:45:17.139Z,51.30
2018-02-24T01:45:49.182Z,51.20
2018-02-24T01:46:21.962Z,51.20
2018-02-24T01:46:53.977Z,51.20
2018-02-24T01:47:26.765Z,51.30
2018-02-24T01:47:58.850Z,51.30
2018-02-24T01:48:30.877Z,51.30
2018-02-24T01:49:02.903Z,51.20
2018-02-24T01:49:35.705Z,51.30
2018-02-24T01:50:07.763Z,51.30
2018-02-24T01:50:39.816Z,51.40
2018-02-24T01:51:11.855Z,51.30
2018-02-24T01:51:43.881Z,51.30
2018-02-24T01:52:16.682Z,51.30
2018-02-24T01:52:48.725Z,51.30
2018-02-24T01:53:20.755Z,51.70
2018-02-24T01:53:52.790Z,51.40
2018-02-24T01:54:24.798Z,51.30
2018-02-24T01:54:56.832Z,51.30
2018-02-24T01:55:28.925Z,51.30
2018-02-24T01:56:00.963Z,51.30
2018-02-24T01:56:32.981Z,51.40
2018-02-24T01:57:05.038Z,51.40
2018-02-24T01:57:37.084Z,51.40
2018-02-24T01:58:09.171Z,51.40
2018-02-24T01:58:41.224Z,51.50
2018-02-24T01:59:13.231Z,51.40
2018-02-24T01:59:46.030Z,51.40
2018-02-24T02:00:18.050Z,51.40
2018-02-24T02:00:50.078Z,51.30
2018-02-24T02:01:22.124Z,51.30
2018-02-24T02:01:54.141Z,51.30
2018-02-24T02:02:26.172Z,51.30
2018-02-24T02:02:58.218Z,51.20
2018-02-24T02:03:31.003Z,51.30
2018-02-24T02:04:03.032Z,51.30
2018-02-24T02:04:35.079Z,51.30
2018-02-24T02:05:07.857Z,51.40
2018-02-24T02:05:39.876Z,51.30
2018-02-24T02:06:12.680Z,51.30
2018-02-24T02:06:44.718Z,51.30
2018-02-24T02:07:17.497Z,51.30
2018-02-24T02:07:49.534Z,51.30
2018-02-24T02:08:22.337Z,51.40
2018-02-24T02:08:54.370Z,51.40
2018-02-24T02:09:26.445Z,51.30
2018-02-24T02:09:58.467Z,51.30
2018-02-24T02:10:30.866Z,51.30
2018-02-24T02:11:02.860Z,51.20
2018-02-24T02:11:35.664Z,51.00
2018-02-24T02:12:07.683Z,51.00
2018-02-24T02:12:40.555Z,50.70
2018-02-24T02:13:13.356Z,50.90
2018-02-24T02:13:45.451Z,50.10
2018-02-24T02:14:17.484Z,36.80
2018-02-24T02:14:49.511Z,33.40
2018-02-24T02:15:21.553Z,29.70
2018-02-24T02:15:53.594Z,29.20
2018-02-24T02:16:26.394Z,28.50
2018-02-24T02:16:58.406Z,28.50
2018-02-24T02:17:31.201Z,28.40
2018-02-24T02:18:03.239Z,28.00
2018-02-24T02:18:35.274Z,28.70
2018-02-24T02:19:08.065Z,29.40
2018-02-24T02:19:40.092Z,29.20
2018-02-24T02:20:12.922Z,30.80
2018-02-24T02:20:44.962Z,30.50
2018-02-24T02:21:16.988Z,30.50
2018-02-24T02:21:49.017Z,30.90
2018-02-24T02:22:21.859Z,30.70
2018-02-24T02:22:53.910Z,30.70
2018-02-24T02:23:25.922Z,30.70
2018-02-24T02:23:58.047Z,31.50
2018-02-24T02:24:30.832Z,32.60
2018-02-24T02:25:02.862Z,32.50
2018-02-24T02:25:35.641Z,31.80
2018-02-24T02:26:07.676Z,31.50
2018-02-24T02:26:40.466Z,31.60
2018-02-24T02:27:12.507Z,31.50
2018-02-24T02:27:45.292Z,31.90
2018-02-24T02:28:17.317Z,31.90
2018-02-24T02:28:50.123Z,32.40
2018-02-24T02:29:22.156Z,32.40
2018-02-24T02:29:54.188Z,32.10
2018-02-24T02:30:27.000Z,31.90
2018-02-24T02:30:59.042Z,31.80
2018-02-24T02:31:31.064Z,32.20
2018-02-24T02:32:03.125Z,32.70
2018-02-24T02:32:35.910Z,32.60
2018-02-24T02:33:07.955Z,32.60
2018-02-24T02:33:40.023Z,33.20
2018-02-24T02:34:12.036Z,32.70
2018-02-24T02:34:44.838Z,33.20
2018-02-24T02:35:16.856Z,33.10
2018-02-24T02:35:49.686Z,33.00
2018-02-24T02:36:21.733Z,33.00
2018-02-24T02:36:53.764Z,33.10
2018-02-24T02:37:25.785Z,33.20
2018-02-24T02:37:58.592Z,32.90
2018-02-24T02:38:30.621Z,32.80
2018-02-24T02:39:02.672Z,32.60
2018-02-24T02:39:34.710Z,32.60
2018-02-24T02:40:07.497Z,32.00
2018-02-24T02:40:39.514Z,31.90
2018-02-24T02:41:12.316Z,32.00
2018-02-24T02:41:44.342Z,31.90
2018-02-24T02:42:17.142Z,32.00
2018-02-24T02:42:49.352Z,31.90
2018-02-24T02:43:21.387Z,32.50
2018-02-24T02:43:53.428Z,32.60
2018-02-24T02:44:25.474Z,32.60
2018-02-24T02:44:57.493Z,33.00
2018-02-24T02:45:29.543Z,33.10
2018-02-24T02:46:02.320Z,33.50
2018-02-24T02:46:34.353Z,33.40
2018-02-24T02:47:07.155Z,33.50
2018-02-24T02:47:39.214Z,33.50
2018-02-24T02:48:11.210Z,33.50
2018-02-24T02:48:44.011Z,33.40
2018-02-24T02:49:16.059Z,33.30
2018-02-24T02:49:48.077Z,33.20
2018-02-24T02:50:20.930Z,32.90
2018-02-24T02:50:52.978Z,32.70
2018-02-24T02:51:25.001Z,32.20
2018-02-24T02:51:57.030Z,32.30
2018-02-24T02:52:29.055Z,32.50
2018-02-24T02:53:01.851Z,31.80
2018-02-24T02:53:33.878Z,31.90
2018-02-24T02:54:06.689Z,32.00
2018-02-24T02:54:38.718Z,31.70
2018-02-24T02:55:10.746Z,31.60
2018-02-24T02:55:43.574Z,31.50
2018-02-24T02:56:15.638Z,31.70
2018-02-24T02:56:47.787Z,32.60
2018-02-24T02:57:19.834Z,33.40
2018-02-24T02:57:51.890Z,33.90
2018-02-24T02:58:23.914Z,34.10
2018-02-24T02:58:55.946Z,34.10
2018-02-24T02:59:27.972Z,34.10
2018-02-24T03:00:00.816Z,34.20
2018-02-24T03:00:32.864Z,33.90
2018-02-24T03:01:04.899Z,34.00
2018-02-24T03:01:36.974Z,31.80
2018-02-24T03:02:08.993Z,32.50
2018-02-24T03:02:41.126Z,34.10
2018-02-24T03:03:13.909Z,34.80
2018-02-24T03:03:45.956Z,34.60
2018-02-24T03:04:18.046Z,34.70
2018-02-24T03:04:50.091Z,34.60
2018-02-24T03:05:22.305Z,34.50
2018-02-24T03:05:55.092Z,34.50
2018-02-24T03:06:27.114Z,34.80
2018-02-24T03:06:59.941Z,34.50
2018-02-24T03:07:31.959Z,34.60
2018-02-24T03:08:03.993Z,34.60
2018-02-24T03:08:36.046Z,34.50
2018-02-24T03:09:08.869Z,35.20
2018-02-24T03:09:40.904Z,34.70
2018-02-24T03:10:12.936Z,34.70
2018-02-24T03:10:44.980Z,34.90
2018-02-24T03:11:17.000Z,34.90
2018-02-24T03:11:49.809Z,35.50
2018-02-24T03:12:21.839Z,34.90
2018-02-24T03:12:53.862Z,35.20
2018-02-24T03:13:25.921Z,35.20
2018-02-24T03:13:58.707Z,35.20
2018-02-24T03:14:30.747Z,35.20
2018-02-24T03:15:03.549Z,35.90
2018-02-24T03:15:35.616Z,35.30
2018-02-24T03:16:07.631Z,35.40
2018-02-24T03:16:40.445Z,35.40
2018-02-24T03:17:12.475Z,35.40
2018-02-24T03:17:44.496Z,35.40
2018-02-24T03:18:16.520Z,35.60
2018-02-24T03:18:48.575Z,35.70
2018-02-24T03:19:20.592Z,35.60
2018-02-24T03:19:52.625Z,35.60
2018-02-24T03:20:24.655Z,35.60
2018-02-24T03:20:56.700Z,35.70
2018-02-24T03:21:29.556Z,36.20
2018-02-24T03:22:01.581Z,35.90
2018-02-24T03:22:33.620Z,35.90
2018-02-24T03:23:05.646Z,35.90
2018-02-24T03:23:37.677Z,35.80
2018-02-24T03:24:10.485Z,35.90
2018-02-24T03:24:42.504Z,35.90
2018-02-24T03:25:14.641Z,36.10
2018-02-24T03:25:46.656Z,36.10
2018-02-24T03:26:18.679Z,36.10
2018-02-24T03:26:50.710Z,36.10
2018-02-24T03:27:23.492Z,36.20
2018-02-24T03:27:55.528Z,36.20
2018-02-24T03:28:28.311Z,36.30
2018-02-24T03:29:00.389Z,36.30
2018-02-24T03:29:32.413Z,36.40
2018-02-24T03:30:04.453Z,36.30
2018-02-24T03:30:37.252Z,36.70
2018-02-24T03:31:09.267Z,36.40
2018-02-24T03:31:42.073Z,36.70
2018-02-24T03:32:14.121Z,36.60
2018-02-24T03:32:46.171Z,36.50
2018-02-24T03:33:18.206Z,36.50
2018-02-24T03:33:50.252Z,36.60
2018-02-24T03:34:22.287Z,36.60
2018-02-24T03:34:55.090Z,36.70
2018-02-24T03:35:27.119Z,36.70
2018-02-24T03:35:59.926Z,36.80
2018-02-24T03:36:31.959Z,36.80
2018-02-24T03:37:04.003Z,36.80
2018-02-24T03:37:36.034Z,36.90
2018-02-24T03:38:08.860Z,37.00
2018-02-24T03:38:40.870Z,37.00
2018-02-24T03:39:12.900Z,36.90
2018-02-24T03:39:45.715Z,37.00
2018-02-24T03:40:17.754Z,37.00
2018-02-24T03:40:49.778Z,37.00
2018-02-24T03:41:22.572Z,37.10
2018-02-24T03:41:54.596Z,37.00
2018-02-24T03:42:27.421Z,37.70
2018-02-24T03:42:59.451Z,37.20
2018-02-24T03:43:31.617Z,37.20
2018-02-24T03:44:03.654Z,37.10
2018-02-24T03:44:35.668Z,37.30
2018-02-24T03:45:08.461Z,37.30
2018-02-24T03:45:40.492Z,37.30
2018-02-24T03:46:13.279Z,37.40
2018-02-24T03:46:45.387Z,37.40
2018-02-24T03:47:17.402Z,37.40
2018-02-24T03:47:49.433Z,37.40
2018-02-24T03:48:21.466Z,37.40
2018-02-24T03:48:54.253Z,37.50
2018-02-24T03:49:26.300Z,37.50
2018-02-24T03:49:58.332Z,37.50
2018-02-24T03:50:31.140Z,37.60
2018-02-24T03:51:03.170Z,37.60
2018-02-24T03:51:35.961Z,37.70
2018-02-24T03:52:08.000Z,37.60
2018-02-24T03:52:40.019Z,37.70
2018-02-24T03:53:12.824Z,38.20
2018-02-24T03:53:44.852Z,37.70
2018-02-24T03:54:17.657Z,37.80
2018-02-24T03:54:49.681Z,37.80
2018-02-24T03:55:21.740Z,37.80
2018-02-24T03:55:53.773Z,37.90
2018-02-24T03:56:26.592Z,37.90
2018-02-24T03:56:58.609Z,37.90
2018-02-24T03:57:30.648Z,37.90
2018-02-24T03:58:03.449Z,37.90
2018-02-24T03:58:35.480Z,37.90
2018-02-24T03:59:07.503Z,37.90
2018-02-24T03:59:40.304Z,38.00
2018-02-24T04:00:12.344Z,38.00
2018-02-24T04:00:44.373Z,38.00
2018-02-24T04:01:17.177Z,38.50
2018-02-24T04:01:49.203Z,38.00
2018-02-24T04:02:21.997Z,38.10
2018-02-24T04:02:54.025Z,38.00
2018-02-24T04:03:26.844Z,38.10
2018-02-24T04:03:58.858Z,38.10
2018-02-24T04:04:30.897Z,38.10
2018-02-24T04:05:03.706Z,38.20
2018-02-24T04:05:35.732Z,38.20
2018-02-24T04:06:07.790Z,38.30
2018-02-24T04:06:39.806Z,38.30
2018-02-24T04:07:11.861Z,38.30
2018-02-24T04:07:43.903Z,38.30
2018-02-24T04:08:15.984Z,38.40
2018-02-24T04:08:48.019Z,38.40
2018-02-24T04:09:20.838Z,38.80
2018-02-24T04:09:52.877Z,39.00
2018-02-24T04:10:24.898Z,38.50
2018-02-24T04:10:56.930Z,38.40
2018-02-24T04:11:28.959Z,38.50
2018-02-24T04:12:00.980Z,38.50
2018-02-24T04:12:33.001Z,38.50
2018-02-24T04:13:05.801Z,38.60
2018-02-24T04:13:37.846Z,38.60
2018-02-24T04:14:09.894Z,38.50
2018-02-24T04:14:41.936Z,38.60
2018-02-24T04:15:13.968Z,38.60
2018-02-24T04:15:45.988Z,38.60
2018-02-24T04:16:18.019Z,38.60
2018-02-24T04:16:50.039Z,38.60
2018-02-24T04:17:22.072Z,38.70
2018-02-24T04:17:54.113Z,38.70
2018-02-24T04:18:26.142Z,38.70
2018-02-24T04:18:58.159Z,38.70
2018-02-24T04:19:30.197Z,38.70
2018-02-24T04:20:02.994Z,38.80
2018-02-24T04:20:35.032Z,38.80
2018-02-24T04:21:07.069Z,38.80
2018-02-24T04:21:39.124Z,38.90
2018-02-24T04:22:11.180Z,38.80
2018-02-24T04:22:43.958Z,38.90
2018-02-24T04:23:15.999Z,38.90
2018-02-24T04:23:48.781Z,38.90
2018-02-24T04:24:20.812Z,38.90
2018-02-24T04:24:52.849Z,38.90
2018-02-24T04:25:25.644Z,39.00
2018-02-24T04:25:57.681Z,39.00
2018-02-24T04:26:30.469Z,39.00
2018-02-24T04:27:02.504Z,39.00
2018-02-24T04:27:34.578Z,39.00
2018-02-24T04:28:06.642Z,39.00
2018-02-24T04:28:38.666Z,39.00
2018-02-24T04:29:10.705Z,39.00
2018-02-24T04:29:42.744Z,39.70
2018-02-24T04:30:15.545Z,39.20
2018-02-24T04:30:47.575Z,39.20
2018-02-24T04:31:20.438Z,39.20
2018-02-24T04:31:52.446Z,39.20
2018-02-24T04:32:24.468Z,39.20
2018-02-24T04:32:56.519Z,39.20
2018-02-24T04:33:28.552Z,39.20
2018-02-24T04:34:00.679Z,39.30
2018-02-24T04:34:32.662Z,39.30
2018-02-24T04:35:04.704Z,39.30
2018-02-24T04:35:37.497Z,39.30
2018-02-24T04:36:09.532Z,39.30
2018-02-24T04:36:41.617Z,39.30
2018-02-24T04:37:13.639Z,39.30
2018-02-24T04:37:45.693Z,39.40
2018-02-24T04:38:18.470Z,39.40
2018-02-24T04:38:50.488Z,39.40
2018-02-24T04:39:23.289Z,39.50
2018-02-24T04:39:55.313Z,39.40
2018-02-24T04:40:28.107Z,39.50
2018-02-24T04:41:00.134Z,39.40
2018-02-24T04:41:32.936Z,39.50
2018-02-24T04:42:04.979Z,39.50
2018-02-24T04:42:37.010Z,39.60
2018-02-24T04:43:09.818Z,39.50
2018-02-24T04:43:41.852Z,39.50
2018-02-24T04:44:13.888Z,39.50
2018-02-24T04:44:45.937Z,39.50
2018-02-24T04:45:18.728Z,39.60
2018-02-24T04:45:50.824Z,39.50
2018-02-24T04:46:22.834Z,39.60
2018-02-24T04:46:54.877Z,39.60
2018-02-24T04:47:26.923Z,39.60
2018-02-24T04:47:58.948Z,39.60
2018-02-24T04:48:31.804Z,39.60
2018-02-24T04:49:03.806Z,39.60
2018-02-24T04:49:35.856Z,39.60
2018-02-24T04:50:07.899Z,39.70
2018-02-24T04:50:39.920Z,39.70
2018-02-24T04:51:12.751Z,39.80
2018-02-24T04:51:44.761Z,39.70
2018-02-24T04:52:16.810Z,39.80
2018-02-24T04:52:48.849Z,39.90
2018-02-24T04:53:21.662Z,39.80
2018-02-24T04:53:53.684Z,39.80
2018-02-24T04:54:25.749Z,39.90
2018-02-24T04:54:57.783Z,39.80
2018-02-24T04:55:30.578Z,39.90
2018-02-24T04:56:02.646Z,39.80
2018-02-24T04:56:34.657Z,39.90
2018-02-24T04:57:06.694Z,39.90
2018-02-24T04:57:39.476Z,40.00
2018-02-24T04:58:11.521Z,40.00
2018-02-24T04:58:44.312Z,40.00
2018-02-24T04:59:16.345Z,40.00
2018-02-24T04:59:49.187Z,40.10
2018-02-24T05:00:21.183Z,40.00
2018-02-24T05:00:53.251Z,40.00
2018-02-24T05:01:25.276Z,40.10
2018-02-24T05:01:57.312Z,40.20
2018-02-24T05:02:30.108Z,40.20
2018-02-24T05:03:02.141Z,40.10
2018-02-24T05:03:34.265Z,40.20
2018-02-24T05:04:06.252Z,40.20
2018-02-24T05:04:38.289Z,40.30
2018-02-24T05:05:11.080Z,40.40
2018-02-24T05:05:43.103Z,40.30
2018-02-24T05:06:15.902Z,40.40
2018-02-24T05:06:47.920Z,40.40
2018-02-24T05:07:20.719Z,40.50
2018-02-24T05:07:52.740Z,40.50
2018-02-24T05:08:25.548Z,40.60
2018-02-24T05:08:57.574Z,40.60
2018-02-24T05:09:29.625Z,40.50
2018-02-24T05:10:01.664Z,40.60
2018-02-24T05:10:34.468Z,40.60
2018-02-24T05:11:06.499Z,40.60
2018-02-24T05:11:39.284Z,40.70
2018-02-24T05:12:11.317Z,40.60
2018-02-24T05:12:43.346Z,40.50
2018-02-24T05:13:15.378Z,40.60
2018-02-24T05:13:47.409Z,40.60
2018-02-24T05:14:19.441Z,40.60
2018-02-24T05:14:51.481Z,40.90
2018-02-24T05:15:23.505Z,40.70
2018-02-24T05:15:56.312Z,40.70
2018-02-24T05:16:28.339Z,40.70
2018-02-24T05:17:01.141Z,40.90
2018-02-24T05:17:33.181Z,40.80
2018-02-24T05:18:05.211Z,40.80
2018-02-24T05:18:37.988Z,41.00
2018-02-24T05:19:10.030Z,40.90
2018-02-24T05:19:42.828Z,40.80
2018-02-24T05:20:14.853Z,40.70
2018-02-24T05:20:47.647Z,41.20
2018-02-24T05:21:19.666Z,41.10
2018-02-24T05:21:52.478Z,41.00
2018-02-24T05:22:24.505Z,41.00
2018-02-24T05:22:56.543Z,41.00
2018-02-24T05:23:29.328Z,41.20
2018-02-24T05:24:01.352Z,41.20
2018-02-24T05:24:34.140Z,41.10
2018-02-24T05:25:06.178Z,41.00
2018-02-24T05:25:38.968Z,41.20
2018-02-24T05:26:10.992Z,41.20
2018-02-24T05:26:43.808Z,41.20
2018-02-24T05:27:15.834Z,41.20
2018-02-24T05:27:47.868Z,41.20
2018-02-24T05:28:20.662Z,41.30
2018-02-24T05:28:52.764Z,41.30
2018-02-24T05:29:24.761Z,41.20
2018-02-24T05:29:56.792Z,41.20
2018-02-24T05:30:29.588Z,41.30
2018-02-24T05:31:01.628Z,41.20
2018-02-24T05:31:33.667Z,41.40
2018-02-24T05:32:06.470Z,41.50
2018-02-24T05:32:38.497Z,41.40
2018-02-24T05:33:10.537Z,41.30
2018-02-24T05:33:43.340Z,41.40
2018-02-24T05:34:15.377Z,41.50
2018-02-24T05:34:47.479Z,41.40
2018-02-24T05:35:19.496Z,41.40
2018-02-24T05:35:51.521Z,41.40
2018-02-24T05:36:24.316Z,41.50
2018-02-24T05:36:56.345Z,41.50
2018-02-24T05:37:28.393Z,41.60
2018-02-24T05:38:01.182Z,41.60
2018-02-24T05:38:33.216Z,41.50
2018-02-24T05:39:05.250Z,41.50
2018-02-24T05:39:38.045Z,41.60
2018-02-24T05:40:10.074Z,41.60
2018-02-24T05:40:42.879Z,41.70
2018-02-24T05:41:14.904Z,41.60
2018-02-24T05:41:46.932Z,41.60
2018-02-24T05:42:19.745Z,41.40
2018-02-24T05:42:51.766Z,41.60
2018-02-24T05:43:24.565Z,41.80
2018-02-24T05:43:56.593Z,41.60
2018-02-24T05:44:29.394Z,41.70
2018-02-24T05:45:01.427Z,41.80
2018-02-24T05:45:33.452Z,41.70
2018-02-24T05:46:06.253Z,41.80
2018-02-24T05:46:38.286Z,41.80
2018-02-24T05:47:10.328Z,41.70
2018-02-24T05:47:43.123Z,41.90
2018-02-24T05:48:15.333Z,41.70
2018-02-24T05:48:47.384Z,41.90
2018-02-24T05:49:19.385Z,41.70
2018-02-24T05:49:51.418Z,41.90
2018-02-24T05:50:23.457Z,41.90
2018-02-24T05:50:56.346Z,41.80
2018-02-24T05:51:28.393Z,41.80
2018-02-24T05:52:00.429Z,41.90
2018-02-24T05:52:33.219Z,41.90
2018-02-24T05:53:05.279Z,41.80
2018-02-24T05:53:37.336Z,42.00
2018-02-24T05:54:09.371Z,42.00
2018-02-24T05:54:41.414Z,41.90
2018-02-24T05:55:14.212Z,42.00
2018-02-24T05:55:46.229Z,42.00
2018-02-24T05:56:18.291Z,42.00
2018-02-24T05:56:51.085Z,42.00
2018-02-24T05:57:23.120Z,42.00
2018-02-24T05:57:55.151Z,42.00
2018-02-24T05:58:27.951Z,42.00
2018-02-24T05:58:59.980Z,42.00
2018-02-24T05:59:32.023Z,42.10
2018-02-24T06:00:04.846Z,42.20
2018-02-24T06:00:36.866Z,42.10
2018-02-24T06:01:08.926Z,42.20
2018-02-24T06:01:40.955Z,42.00
2018-02-24T06:02:12.997Z,42.00
2018-02-24T06:02:45.807Z,42.10
2018-02-24T06:03:17.842Z,42.00
2018-02-24T06:03:49.869Z,42.00
2018-02-24T06:04:22.672Z,42.10
2018-02-24T06:04:54.708Z,42.10
2018-02-24T06:05:26.736Z,42.10
2018-02-24T06:05:59.529Z,42.20
2018-02-24T06:06:31.556Z,42.10
2018-02-24T06:07:04.343Z,42.20
2018-02-24T06:07:36.403Z,42.20
2018-02-24T06:08:09.176Z,42.20
2018-02-24T06:08:41.224Z,42.10
2018-02-24T06:09:14.012Z,42.20
2018-02-24T06:09:46.035Z,42.20
2018-02-24T06:10:18.061Z,42.20
2018-02-24T06:10:50.866Z,42.20
2018-02-24T06:11:22.893Z,42.10
2018-02-24T06:11:55.616Z,42.20
2018-02-24T06:12:27.669Z,42.20
2018-02-24T06:12:59.925Z,42.30
2018-02-24T06:13:31.955Z,42.30
2018-02-24T06:14:03.988Z,42.30
2018-02-24T06:14:36.015Z,42.20
2018-02-24T06:15:08.812Z,42.40
2018-02-24T06:15:40.845Z,42.30
2018-02-24T06:16:12.888Z,42.30
2018-02-24T06:16:44.901Z,42.30
2018-02-24T06:17:16.943Z,42.30
2018-02-24T06:17:48.974Z,42.30
2018-02-24T06:18:21.033Z,42.30
2018-02-24T06:18:53.048Z,42.30
2018-02-24T06:19:25.092Z,42.40
2018-02-24T06:19:57.897Z,42.40
2018-02-24T06:20:29.929Z,42.40
2018-02-24T06:21:01.979Z,43.10
2018-02-24T06:21:34.775Z,42.40
2018-02-24T06:22:06.817Z,42.30
2018-02-24T06:22:38.837Z,42.20
2018-02-24T06:23:11.653Z,42.40
2018-02-24T06:23:43.662Z,42.40
2018-02-24T06:24:16.458Z,42.30
2018-02-24T06:24:48.489Z,42.30
2018-02-24T06:25:21.288Z,42.30
2018-02-24T06:25:53.315Z,42.30
2018-02-24T06:26:25.336Z,42.30
2018-02-24T06:26:57.392Z,42.30
2018-02-24T06:27:30.193Z,43.20
2018-02-24T06:28:02.220Z,42.40
2018-02-24T06:28:35.049Z,43.10
2018-02-24T06:29:07.090Z,42.30
2018-02-24T06:29:39.115Z,42.40
2018-02-24T06:30:11.148Z,42.40
2018-02-24T06:30:43.926Z,42.40
2018-02-24T06:31:15.953Z,42.40
2018-02-24T06:31:47.989Z,42.50
2018-02-24T06:32:20.013Z,42.50
2018-02-24T06:32:52.040Z,42.50
2018-02-24T06:33:24.074Z,42.50
2018-02-24T06:33:56.873Z,42.60
2018-02-24T06:34:28.910Z,42.50
2018-02-24T06:35:00.934Z,42.50
2018-02-24T06:35:33.742Z,42.80
2018-02-24T06:36:05.821Z,42.60
2018-02-24T06:36:37.853Z,42.60
2018-02-24T06:37:09.884Z,42.60
2018-02-24T06:37:41.908Z,42.60
2018-02-24T06:38:14.720Z,42.60
2018-02-24T06:38:46.784Z,42.60
2018-02-24T06:39:18.837Z,42.60
2018-02-24T06:39:50.871Z,42.60
2018-02-24T06:40:22.884Z,42.60
2018-02-24T06:40:55.678Z,42.70
2018-02-24T06:41:27.709Z,42.70
2018-02-24T06:42:00.520Z,42.70
2018-02-24T06:42:32.556Z,42.70
2018-02-24T06:43:04.599Z,42.60
2018-02-24T06:43:37.381Z,42.80
2018-02-24T06:44:09.405Z,42.70
2018-02-24T06:44:42.201Z,42.80
2018-02-24T06:45:14.230Z,42.70
2018-02-24T06:45:47.021Z,42.80
2018-02-24T06:46:19.044Z,42.70
2018-02-24T06:46:51.837Z,42.80
2018-02-24T06:47:23.874Z,42.80
2018-02-24T06:47:56.667Z,42.90
2018-02-24T06:48:28.699Z,42.90
2018-02-24T06:49:00.727Z,42.90
2018-02-24T06:49:33.529Z,42.90
2018-02-24T06:50:05.554Z,42.80
2018-02-24T06:50:38.348Z,42.80
2018-02-24T06:51:10.394Z,42.80
2018-02-24T06:51:42.424Z,42.80
2018-02-24T06:52:15.229Z,42.90
2018-02-24T06:52:47.262Z,42.80
2018-02-24T06:53:19.289Z,42.80
2018-02-24T06:53:52.096Z,42.90
2018-02-24T06:54:24.117Z,42.80
2018-02-24T06:54:56.910Z,42.90
2018-02-24T06:55:28.948Z,42.90